sensor_id;sensor_type;location;lat;lon;timestamp;P1;durP1;ratioP1;P2;durP2;ratioP2
40453;SDS011;26160;51.858;4.398;2022-09-09T00:04:30;9.63;;;7.05;;
40453;SDS011;26160;51.858;4.398;2022-09-09T00:09:47;14.43;;;7.70;;
40453;SDS011;26160;51.858;4.398;2022-09-09T00:12:35;11.77;;;6.60;;
40453;SDS011;26160;51.858;4.398;2022-09-09T00:15:15;9.68;;;5.68;;
40453;SDS011;26160;51.858;4.398;2022-09-09T00:17:56;10.20;;;5.95;;
40453;SDS011;26160;51.858;4.398;2022-09-09T00:20:29;12.02;;;6.40;;
40453;SDS011;26160;51.858;4.398;2022-09-09T00:23:05;12.07;;;5.68;;
40453;SDS011;26160;51.858;4.398;2022-09-09T00:26:00;7.90;;;4.75;;
40453;SDS011;26160;51.858;4.398;2022-09-09T00:28:32;11.80;;;5.28;;
40453;SDS011;26160;51.858;4.398;2022-09-09T00:31:11;10.57;;;4.05;;
40453;SDS011;26160;51.858;4.398;2022-09-09T00:33:44;9.30;;;4.20;;
40453;SDS011;26160;51.858;4.398;2022-09-09T00:36:15;9.65;;;4.00;;
40453;SDS011;26160;51.858;4.398;2022-09-09T00:38:47;9.10;;;4.15;;
40453;SDS011;26160;51.858;4.398;2022-09-09T00:49:38;6.30;;;3.03;;
40453;SDS011;26160;51.858;4.398;2022-09-09T00:52:24;8.25;;;2.53;;
40453;SDS011;26160;51.858;4.398;2022-09-09T00:55:16;10.60;;;4.00;;
40453;SDS011;26160;51.858;4.398;2022-09-09T00:57:57;5.65;;;2.60;;
40453;SDS011;26160;51.858;4.398;2022-09-09T01:17:01;6.45;;;1.80;;
40453;SDS011;26160;51.858;4.398;2022-09-09T01:20:05;9.52;;;2.33;;
40453;SDS011;26160;51.858;4.398;2022-09-09T01:22:41;4.25;;;2.10;;
40453;SDS011;26160;51.858;4.398;2022-09-09T01:25:30;9.48;;;2.13;;
40453;SDS011;26160;51.858;4.398;2022-09-09T01:28:11;5.90;;;2.25;;
40453;SDS011;26160;51.858;4.398;2022-09-09T01:33:13;6.15;;;1.90;;
40453;SDS011;26160;51.858;4.398;2022-09-09T01:36:00;8.02;;;2.65;;
40453;SDS011;26160;51.858;4.398;2022-09-09T01:38:34;4.10;;;1.65;;
40453;SDS011;26160;51.858;4.398;2022-09-09T01:41:02;6.32;;;1.55;;
40453;SDS011;26160;51.858;4.398;2022-09-09T01:43:28;5.70;;;2.05;;
40453;SDS011;26160;51.858;4.398;2022-09-09T01:45:56;11.05;;;2.17;;
40453;SDS011;26160;51.858;4.398;2022-09-09T01:48:24;8.20;;;2.53;;
40453;SDS011;26160;51.858;4.398;2022-09-09T01:50:51;7.43;;;1.98;;
40453;SDS011;26160;51.858;4.398;2022-09-09T01:53:18;5.85;;;1.98;;
40453;SDS011;26160;51.858;4.398;2022-09-09T01:56:04;10.75;;;2.85;;
40453;SDS011;26160;51.858;4.398;2022-09-09T02:03:41;7.47;;;2.72;;
40453;SDS011;26160;51.858;4.398;2022-09-09T02:09:04;6.60;;;2.35;;
40453;SDS011;26160;51.858;4.398;2022-09-09T02:11:32;7.68;;;2.05;;
40453;SDS011;26160;51.858;4.398;2022-09-09T02:14:06;6.15;;;2.20;;
40453;SDS011;26160;51.858;4.398;2022-09-09T02:16:39;6.22;;;2.47;;
40453;SDS011;26160;51.858;4.398;2022-09-09T02:22:00;6.85;;;2.10;;
40453;SDS011;26160;51.858;4.398;2022-09-09T02:24:29;5.85;;;2.42;;
40453;SDS011;26160;51.858;4.398;2022-09-09T02:27:08;6.38;;;2.38;;
40453;SDS011;26160;51.858;4.398;2022-09-09T02:29:38;7.85;;;2.85;;
40453;SDS011;26160;51.858;4.398;2022-09-09T02:32:15;6.75;;;2.92;;
40453;SDS011;26160;51.858;4.398;2022-09-09T02:34:46;8.43;;;3.05;;
40453;SDS011;26160;51.858;4.398;2022-09-09T02:37:16;11.40;;;3.20;;
40453;SDS011;26160;51.858;4.398;2022-09-09T02:39:44;9.95;;;4.13;;
40453;SDS011;26160;51.858;4.398;2022-09-09T02:42:12;11.30;;;4.47;;
40453;SDS011;26160;51.858;4.398;2022-09-09T02:44:40;10.60;;;4.65;;
40453;SDS011;26160;51.858;4.398;2022-09-09T02:47:13;7.32;;;3.40;;
40453;SDS011;26160;51.858;4.398;2022-09-09T02:49:59;8.82;;;3.97;;
40453;SDS011;26160;51.858;4.398;2022-09-09T02:55:47;11.18;;;4.03;;
40453;SDS011;26160;51.858;4.398;2022-09-09T02:58:20;10.38;;;2.70;;
40453;SDS011;26160;51.858;4.398;2022-09-09T03:00:48;6.57;;;2.65;;
40453;SDS011;26160;51.858;4.398;2022-09-09T03:03:16;6.72;;;2.30;;
40453;SDS011;26160;51.858;4.398;2022-09-09T03:05:45;9.25;;;3.05;;
40453;SDS011;26160;51.858;4.398;2022-09-09T03:08:15;7.53;;;2.60;;
40453;SDS011;26160;51.858;4.398;2022-09-09T03:10:42;10.10;;;2.78;;
40453;SDS011;26160;51.858;4.398;2022-09-09T03:13:08;9.57;;;2.97;;
40453;SDS011;26160;51.858;4.398;2022-09-09T03:15:36;8.35;;;2.20;;
40453;SDS011;26160;51.858;4.398;2022-09-09T03:18:03;4.40;;;2.45;;
40453;SDS011;26160;51.858;4.398;2022-09-09T03:20:31;7.10;;;2.22;;
40453;SDS011;26160;51.858;4.398;2022-09-09T03:22:57;7.50;;;2.50;;
40453;SDS011;26160;51.858;4.398;2022-09-09T03:25:26;7.28;;;3.03;;
40453;SDS011;26160;51.858;4.398;2022-09-09T03:27:56;8.20;;;2.50;;
40453;SDS011;26160;51.858;4.398;2022-09-09T03:30:27;5.78;;;2.60;;
40453;SDS011;26160;51.858;4.398;2022-09-09T03:32:54;7.78;;;2.80;;
40453;SDS011;26160;51.858;4.398;2022-09-09T03:35:20;5.85;;;2.65;;
40453;SDS011;26160;51.858;4.398;2022-09-09T03:37:47;8.75;;;2.40;;
40453;SDS011;26160;51.858;4.398;2022-09-09T03:40:13;7.82;;;2.33;;
40453;SDS011;26160;51.858;4.398;2022-09-09T03:42:39;7.22;;;2.70;;
40453;SDS011;26160;51.858;4.398;2022-09-09T03:45:08;6.57;;;2.58;;
40453;SDS011;26160;51.858;4.398;2022-09-09T03:47:36;7.65;;;3.10;;
40453;SDS011;26160;51.858;4.398;2022-09-09T03:50:02;8.27;;;3.00;;
40453;SDS011;26160;51.858;4.398;2022-09-09T03:52:33;10.90;;;3.15;;
40453;SDS011;26160;51.858;4.398;2022-09-09T03:55:04;9.43;;;3.42;;
40453;SDS011;26160;51.858;4.398;2022-09-09T03:57:31;7.47;;;3.00;;
40453;SDS011;26160;51.858;4.398;2022-09-09T04:00:04;10.38;;;3.20;;
40453;SDS011;26160;51.858;4.398;2022-09-09T04:02:33;8.93;;;3.05;;
40453;SDS011;26160;51.858;4.398;2022-09-09T04:05:02;12.60;;;3.72;;
40453;SDS011;26160;51.858;4.398;2022-09-09T04:07:29;4.50;;;2.78;;
40453;SDS011;26160;51.858;4.398;2022-09-09T04:09:55;13.55;;;3.63;;
40453;SDS011;26160;51.858;4.398;2022-09-09T04:12:22;7.03;;;3.58;;
40453;SDS011;26160;51.858;4.398;2022-09-09T04:14:56;10.40;;;3.35;;
40453;SDS011;26160;51.858;4.398;2022-09-09T04:17:22;12.63;;;3.80;;
40453;SDS011;26160;51.858;4.398;2022-09-09T04:19:54;10.63;;;3.38;;
40453;SDS011;26160;51.858;4.398;2022-09-09T04:25:11;10.35;;;4.30;;
40453;SDS011;26160;51.858;4.398;2022-09-09T04:27:38;11.80;;;3.40;;
40453;SDS011;26160;51.858;4.398;2022-09-09T04:30:05;8.77;;;3.60;;
40453;SDS011;26160;51.858;4.398;2022-09-09T04:32:33;12.82;;;4.43;;
40453;SDS011;26160;51.858;4.398;2022-09-09T04:35:17;8.70;;;3.92;;
40453;SDS011;26160;51.858;4.398;2022-09-09T04:37:51;8.27;;;3.83;;
40453;SDS011;26160;51.858;4.398;2022-09-09T04:42:59;9.20;;;4.40;;
40453;SDS011;26160;51.858;4.398;2022-09-09T04:45:36;11.23;;;4.28;;
40453;SDS011;26160;51.858;4.398;2022-09-09T04:48:06;12.13;;;5.03;;
40453;SDS011;26160;51.858;4.398;2022-09-09T04:50:32;7.00;;;3.78;;
40453;SDS011;26160;51.858;4.398;2022-09-09T04:53:00;8.25;;;4.35;;
40453;SDS011;26160;51.858;4.398;2022-09-09T04:55:30;9.10;;;4.30;;
40453;SDS011;26160;51.858;4.398;2022-09-09T04:57:57;9.18;;;4.72;;
40453;SDS011;26160;51.858;4.398;2022-09-09T05:00:28;11.50;;;4.32;;
40453;SDS011;26160;51.858;4.398;2022-09-09T05:02:54;14.23;;;4.65;;
40453;SDS011;26160;51.858;4.398;2022-09-09T05:05:20;12.68;;;4.75;;
40453;SDS011;26160;51.858;4.398;2022-09-09T05:07:46;11.45;;;4.85;;
40453;SDS011;26160;51.858;4.398;2022-09-09T05:10:13;10.13;;;4.25;;
40453;SDS011;26160;51.858;4.398;2022-09-09T05:12:40;14.13;;;4.40;;
40453;SDS011;26160;51.858;4.398;2022-09-09T05:15:06;13.82;;;5.13;;
40453;SDS011;26160;51.858;4.398;2022-09-09T05:17:33;16.35;;;5.15;;
40453;SDS011;26160;51.858;4.398;2022-09-09T05:19:59;10.93;;;4.60;;
40453;SDS011;26160;51.858;4.398;2022-09-09T05:22:25;11.50;;;4.40;;
40453;SDS011;26160;51.858;4.398;2022-09-09T05:24:51;10.73;;;4.85;;
40453;SDS011;26160;51.858;4.398;2022-09-09T05:27:18;13.77;;;4.75;;
40453;SDS011;26160;51.858;4.398;2022-09-09T05:29:45;12.10;;;4.97;;
40453;SDS011;26160;51.858;4.398;2022-09-09T05:32:11;10.35;;;4.40;;
40453;SDS011;26160;51.858;4.398;2022-09-09T05:34:39;11.65;;;4.80;;
40453;SDS011;26160;51.858;4.398;2022-09-09T05:37:05;9.68;;;4.47;;
40453;SDS011;26160;51.858;4.398;2022-09-09T05:39:33;14.18;;;4.55;;
40453;SDS011;26160;51.858;4.398;2022-09-09T05:42:03;16.80;;;4.30;;
40453;SDS011;26160;51.858;4.398;2022-09-09T05:44:30;9.32;;;4.55;;
40453;SDS011;26160;51.858;4.398;2022-09-09T05:46:56;12.27;;;4.60;;
40453;SDS011;26160;51.858;4.398;2022-09-09T05:49:23;14.38;;;3.97;;
40453;SDS011;26160;51.858;4.398;2022-09-09T05:51:49;10.73;;;3.72;;
40453;SDS011;26160;51.858;4.398;2022-09-09T05:54:16;13.57;;;4.03;;
40453;SDS011;26160;51.858;4.398;2022-09-09T05:56:42;15.80;;;4.15;;
40453;SDS011;26160;51.858;4.398;2022-09-09T05:59:09;10.95;;;3.50;;
40453;SDS011;26160;51.858;4.398;2022-09-09T06:01:35;7.88;;;3.70;;
40453;SDS011;26160;51.858;4.398;2022-09-09T06:04:06;8.75;;;3.35;;
40453;SDS011;26160;51.858;4.398;2022-09-09T06:06:33;12.18;;;3.28;;
40453;SDS011;26160;51.858;4.398;2022-09-09T06:09:02;12.00;;;3.70;;
40453;SDS011;26160;51.858;4.398;2022-09-09T06:11:32;11.13;;;3.33;;
40453;SDS011;26160;51.858;4.398;2022-09-09T06:13:59;9.93;;;3.03;;
40453;SDS011;26160;51.858;4.398;2022-09-09T06:16:27;10.82;;;2.97;;
40453;SDS011;26160;51.858;4.398;2022-09-09T06:18:54;9.77;;;2.75;;
40453;SDS011;26160;51.858;4.398;2022-09-09T06:21:26;13.27;;;3.20;;
40453;SDS011;26160;51.858;4.398;2022-09-09T06:23:53;11.55;;;2.70;;
40453;SDS011;26160;51.858;4.398;2022-09-09T06:26:23;11.38;;;3.42;;
40453;SDS011;26160;51.858;4.398;2022-09-09T06:29:00;10.25;;;3.10;;
40453;SDS011;26160;51.858;4.398;2022-09-09T06:31:29;16.23;;;3.17;;
40453;SDS011;26160;51.858;4.398;2022-09-09T06:33:57;12.23;;;3.15;;
40453;SDS011;26160;51.858;4.398;2022-09-09T06:36:25;10.23;;;3.20;;
40453;SDS011;26160;51.858;4.398;2022-09-09T06:38:55;13.00;;;3.40;;
40453;SDS011;26160;51.858;4.398;2022-09-09T06:41:22;13.93;;;3.33;;
40453;SDS011;26160;51.858;4.398;2022-09-09T06:43:49;11.52;;;3.10;;
40453;SDS011;26160;51.858;4.398;2022-09-09T06:46:17;10.98;;;3.35;;
40453;SDS011;26160;51.858;4.398;2022-09-09T06:48:47;10.68;;;3.15;;
40453;SDS011;26160;51.858;4.398;2022-09-09T06:51:21;10.65;;;2.78;;
40453;SDS011;26160;51.858;4.398;2022-09-09T06:53:52;11.88;;;3.00;;
40453;SDS011;26160;51.858;4.398;2022-09-09T06:56:23;12.23;;;3.20;;
40453;SDS011;26160;51.858;4.398;2022-09-09T06:59:02;13.10;;;3.92;;
40453;SDS011;26160;51.858;4.398;2022-09-09T07:01:31;8.32;;;2.85;;
40453;SDS011;26160;51.858;4.398;2022-09-09T07:04:04;10.65;;;2.90;;
40453;SDS011;26160;51.858;4.398;2022-09-09T07:12:13;9.40;;;3.05;;
40453;SDS011;26160;51.858;4.398;2022-09-09T07:17:42;8.93;;;3.38;;
40453;SDS011;26160;51.858;4.398;2022-09-09T07:20:11;12.38;;;3.25;;
40453;SDS011;26160;51.858;4.398;2022-09-09T07:35:25;14.45;;;3.35;;
40453;SDS011;26160;51.858;4.398;2022-09-09T07:40:25;11.23;;;3.33;;
40453;SDS011;26160;51.858;4.398;2022-09-09T07:42:58;11.68;;;2.70;;
40453;SDS011;26160;51.858;4.398;2022-09-09T07:45:26;10.80;;;2.88;;
40453;SDS011;26160;51.858;4.398;2022-09-09T07:48:00;11.88;;;2.85;;
40453;SDS011;26160;51.858;4.398;2022-09-09T07:50:27;11.07;;;3.08;;
40453;SDS011;26160;51.858;4.398;2022-09-09T07:52:54;9.85;;;3.08;;
40453;SDS011;26160;51.858;4.398;2022-09-09T07:55:21;10.30;;;3.30;;
40453;SDS011;26160;51.858;4.398;2022-09-09T07:57:51;15.70;;;2.97;;
40453;SDS011;26160;51.858;4.398;2022-09-09T08:00:18;9.70;;;2.88;;
40453;SDS011;26160;51.858;4.398;2022-09-09T08:02:45;12.70;;;2.70;;
40453;SDS011;26160;51.858;4.398;2022-09-09T08:05:12;8.43;;;2.80;;
40453;SDS011;26160;51.858;4.398;2022-09-09T08:07:38;10.32;;;3.20;;
40453;SDS011;26160;51.858;4.398;2022-09-09T08:10:04;14.02;;;3.08;;
40453;SDS011;26160;51.858;4.398;2022-09-09T08:12:31;9.38;;;2.30;;
40453;SDS011;26160;51.858;4.398;2022-09-09T08:14:58;12.48;;;2.47;;
40453;SDS011;26160;51.858;4.398;2022-09-09T08:17:24;11.95;;;3.00;;
40453;SDS011;26160;51.858;4.398;2022-09-09T08:19:50;11.07;;;2.40;;
40453;SDS011;26160;51.858;4.398;2022-09-09T08:22:16;7.93;;;2.60;;
40453;SDS011;26160;51.858;4.398;2022-09-09T08:24:42;11.13;;;2.75;;
40453;SDS011;26160;51.858;4.398;2022-09-09T08:27:08;7.50;;;2.45;;
40453;SDS011;26160;51.858;4.398;2022-09-09T08:29:35;9.77;;;2.45;;
40453;SDS011;26160;51.858;4.398;2022-09-09T08:32:03;13.30;;;3.00;;
40453;SDS011;26160;51.858;4.398;2022-09-09T08:34:29;13.82;;;3.00;;
40453;SDS011;26160;51.858;4.398;2022-09-09T08:36:56;10.48;;;2.55;;
40453;SDS011;26160;51.858;4.398;2022-09-09T08:39:23;14.43;;;2.83;;
40453;SDS011;26160;51.858;4.398;2022-09-09T08:47:07;13.52;;;2.97;;
40453;SDS011;26160;51.858;4.398;2022-09-09T08:49:47;12.63;;;2.45;;
40453;SDS011;26160;51.858;4.398;2022-09-09T08:52:29;11.82;;;2.42;;
40453;SDS011;26160;51.858;4.398;2022-09-09T08:58:12;10.70;;;2.55;;
40453;SDS011;26160;51.858;4.398;2022-09-09T09:00:47;9.32;;;1.95;;
40453;SDS011;26160;51.858;4.398;2022-09-09T09:03:44;12.43;;;2.53;;
40453;SDS011;26160;51.858;4.398;2022-09-09T09:11:39;12.13;;;2.15;;
40453;SDS011;26160;51.858;4.398;2022-09-09T09:14:10;11.65;;;3.58;;
40453;SDS011;26160;51.858;4.398;2022-09-09T09:16:46;10.80;;;2.20;;
40453;SDS011;26160;51.858;4.398;2022-09-09T09:19:25;11.05;;;2.40;;
40453;SDS011;26160;51.858;4.398;2022-09-09T09:29:48;9.75;;;2.55;;
40453;SDS011;26160;51.858;4.398;2022-09-09T09:32:18;9.68;;;2.50;;
40453;SDS011;26160;51.858;4.398;2022-09-09T09:35:06;10.05;;;2.42;;
40453;SDS011;26160;51.858;4.398;2022-09-09T09:37:37;10.27;;;2.22;;
40453;SDS011;26160;51.858;4.398;2022-09-09T09:40:11;6.22;;;1.70;;
40453;SDS011;26160;51.858;4.398;2022-09-09T09:42:51;9.70;;;1.95;;
40453;SDS011;26160;51.858;4.398;2022-09-09T09:48:11;10.35;;;2.80;;
40453;SDS011;26160;51.858;4.398;2022-09-09T09:50:48;5.93;;;2.00;;
40453;SDS011;26160;51.858;4.398;2022-09-09T09:53:23;13.52;;;2.85;;
40453;SDS011;26160;51.858;4.398;2022-09-09T09:55:59;9.63;;;2.78;;
40453;SDS011;26160;51.858;4.398;2022-09-09T09:58:27;10.40;;;2.72;;
40453;SDS011;26160;51.858;4.398;2022-09-09T10:00:57;7.03;;;2.35;;
40453;SDS011;26160;51.858;4.398;2022-09-09T10:03:28;8.48;;;2.55;;
40453;SDS011;26160;51.858;4.398;2022-09-09T10:06:03;10.65;;;2.70;;
40453;SDS011;26160;51.858;4.398;2022-09-09T10:08:29;13.18;;;2.55;;
40453;SDS011;26160;51.858;4.398;2022-09-09T10:19:05;10.45;;;2.20;;
40453;SDS011;26160;51.858;4.398;2022-09-09T10:38:47;6.47;;;2.30;;
40453;SDS011;26160;51.858;4.398;2022-09-09T10:47:29;7.40;;;3.42;;
40453;SDS011;26160;51.858;4.398;2022-09-09T10:55:52;7.85;;;2.55;;
40453;SDS011;26160;51.858;4.398;2022-09-09T10:58:25;5.47;;;2.53;;
40453;SDS011;26160;51.858;4.398;2022-09-09T11:01:01;5.93;;;2.63;;
40453;SDS011;26160;51.858;4.398;2022-09-09T11:03:41;5.00;;;2.23;;
40453;SDS011;26160;51.858;4.398;2022-09-09T11:06:14;5.00;;;2.10;;
40453;SDS011;26160;51.858;4.398;2022-09-09T11:08:46;7.13;;;2.30;;
40453;SDS011;26160;51.858;4.398;2022-09-09T11:22:05;6.38;;;2.38;;
40453;SDS011;26160;51.858;4.398;2022-09-09T11:24:53;5.97;;;2.00;;
40453;SDS011;26160;51.858;4.398;2022-09-09T11:27:31;5.15;;;1.98;;
40453;SDS011;26160;51.858;4.398;2022-09-09T11:38:28;10.85;;;3.42;;
40453;SDS011;26160;51.858;4.398;2022-09-09T11:41:23;9.52;;;3.38;;
40453;SDS011;26160;51.858;4.398;2022-09-09T11:43:50;12.18;;;3.85;;
40453;SDS011;26160;51.858;4.398;2022-09-09T11:46:18;9.80;;;3.65;;
40453;SDS011;26160;51.858;4.398;2022-09-09T11:51:56;11.70;;;4.22;;
40453;SDS011;26160;51.858;4.398;2022-09-09T11:54:30;10.85;;;3.97;;
40453;SDS011;26160;51.858;4.398;2022-09-09T11:56:58;12.63;;;5.00;;
40453;SDS011;26160;51.858;4.398;2022-09-09T11:59:29;12.75;;;4.68;;
40453;SDS011;26160;51.858;4.398;2022-09-09T12:04:28;10.40;;;4.63;;
40453;SDS011;26160;51.858;4.398;2022-09-09T12:07:21;10.45;;;4.55;;
40453;SDS011;26160;51.858;4.398;2022-09-09T12:15:59;10.82;;;5.40;;
40453;SDS011;26160;51.858;4.398;2022-09-09T12:33:12;12.93;;;6.03;;
40453;SDS011;26160;51.858;4.398;2022-09-09T12:35:42;12.68;;;6.00;;
40453;SDS011;26160;51.858;4.398;2022-09-09T12:38:12;14.30;;;7.32;;
40453;SDS011;26160;51.858;4.398;2022-09-09T12:40:53;23.70;;;7.05;;
40453;SDS011;26160;51.858;4.398;2022-09-09T12:43:24;17.10;;;3.25;;
40453;SDS011;26160;51.858;4.398;2022-09-09T12:45:51;4.18;;;1.58;;
40453;SDS011;26160;51.858;4.398;2022-09-09T12:48:36;6.57;;;1.85;;
40453;SDS011;26160;51.858;4.398;2022-09-09T12:51:06;4.45;;;2.05;;
40453;SDS011;26160;51.858;4.398;2022-09-09T12:53:43;5.45;;;1.73;;
40453;SDS011;26160;51.858;4.398;2022-09-09T12:56:18;5.93;;;1.63;;
40453;SDS011;26160;51.858;4.398;2022-09-09T12:58:47;4.13;;;1.90;;
40453;SDS011;26160;51.858;4.398;2022-09-09T13:01:30;4.63;;;3.00;;
40453;SDS011;26160;51.858;4.398;2022-09-09T13:03:57;6.03;;;2.78;;
40453;SDS011;26160;51.858;4.398;2022-09-09T13:06:31;3.95;;;1.85;;
40453;SDS011;26160;51.858;4.398;2022-09-09T13:08:58;5.47;;;1.90;;
40453;SDS011;26160;51.858;4.398;2022-09-09T13:14:00;3.85;;;1.80;;
40453;SDS011;26160;51.858;4.398;2022-09-09T13:16:31;5.78;;;2.13;;
40453;SDS011;26160;51.858;4.398;2022-09-09T13:19:00;6.55;;;2.05;;
40453;SDS011;26160;51.858;4.398;2022-09-09T13:21:34;5.45;;;2.35;;
40453;SDS011;26160;51.858;4.398;2022-09-09T13:24:05;6.22;;;1.75;;
40453;SDS011;26160;51.858;4.398;2022-09-09T13:26:54;6.15;;;2.10;;
40453;SDS011;26160;51.858;4.398;2022-09-09T13:29:22;12.93;;;3.17;;
40453;SDS011;26160;51.858;4.398;2022-09-09T13:31:48;6.90;;;2.88;;
40453;SDS011;26160;51.858;4.398;2022-09-09T13:34:31;10.23;;;3.30;;
40453;SDS011;26160;51.858;4.398;2022-09-09T13:36:59;9.95;;;2.20;;
40453;SDS011;26160;51.858;4.398;2022-09-09T13:39:28;6.15;;;2.40;;
40453;SDS011;26160;51.858;4.398;2022-09-09T13:41:54;5.30;;;2.60;;
40453;SDS011;26160;51.858;4.398;2022-09-09T13:44:24;8.40;;;3.22;;
40453;SDS011;26160;51.858;4.398;2022-09-09T13:47:02;10.13;;;3.80;;
40453;SDS011;26160;51.858;4.398;2022-09-09T13:49:47;5.65;;;2.50;;
40453;SDS011;26160;51.858;4.398;2022-09-09T13:52:14;9.15;;;2.90;;
40453;SDS011;26160;51.858;4.398;2022-09-09T13:54:42;7.63;;;2.58;;
40453;SDS011;26160;51.858;4.398;2022-09-09T13:57:19;7.88;;;2.90;;
40453;SDS011;26160;51.858;4.398;2022-09-09T13:59:51;10.88;;;3.30;;
40453;SDS011;26160;51.858;4.398;2022-09-09T14:02:18;7.18;;;2.92;;
40453;SDS011;26160;51.858;4.398;2022-09-09T14:04:44;8.35;;;3.10;;
40453;SDS011;26160;51.858;4.398;2022-09-09T14:07:11;6.68;;;3.40;;
40453;SDS011;26160;51.858;4.398;2022-09-09T14:09:39;4.28;;;2.38;;
40453;SDS011;26160;51.858;4.398;2022-09-09T14:12:08;4.97;;;2.30;;
40453;SDS011;26160;51.858;4.398;2022-09-09T14:14:38;5.60;;;1.73;;
40453;SDS011;26160;51.858;4.398;2022-09-09T14:17:04;4.85;;;2.20;;
40453;SDS011;26160;51.858;4.398;2022-09-09T14:19:30;6.68;;;2.17;;
40453;SDS011;26160;51.858;4.398;2022-09-09T14:21:59;6.57;;;1.55;;
40453;SDS011;26160;51.858;4.398;2022-09-09T14:24:26;5.85;;;1.45;;
40453;SDS011;26160;51.858;4.398;2022-09-09T14:26:53;5.82;;;1.63;;
40453;SDS011;26160;51.858;4.398;2022-09-09T14:29:20;10.07;;;1.30;;
40453;SDS011;26160;51.858;4.398;2022-09-09T14:31:46;7.40;;;1.63;;
40453;SDS011;26160;51.858;4.398;2022-09-09T14:34:12;4.20;;;1.25;;
40453;SDS011;26160;51.858;4.398;2022-09-09T14:36:39;5.25;;;1.55;;
40453;SDS011;26160;51.858;4.398;2022-09-09T14:39:07;5.28;;;1.38;;
40453;SDS011;26160;51.858;4.398;2022-09-09T14:41:33;6.22;;;1.08;;
40453;SDS011;26160;51.858;4.398;2022-09-09T14:43:59;8.10;;;1.27;;
40453;SDS011;26160;51.858;4.398;2022-09-09T14:46:26;6.40;;;1.38;;
40453;SDS011;26160;51.858;4.398;2022-09-09T14:48:52;5.57;;;1.55;;
40453;SDS011;26160;51.858;4.398;2022-09-09T14:51:22;5.20;;;1.52;;
40453;SDS011;26160;51.858;4.398;2022-09-09T14:53:53;5.55;;;1.40;;
40453;SDS011;26160;51.858;4.398;2022-09-09T14:56:21;3.95;;;1.20;;
40453;SDS011;26160;51.858;4.398;2022-09-09T14:58:50;4.15;;;1.48;;
40453;SDS011;26160;51.858;4.398;2022-09-09T15:01:18;6.55;;;1.70;;
40453;SDS011;26160;51.858;4.398;2022-09-09T15:03:50;6.60;;;1.90;;
40453;SDS011;26160;51.858;4.398;2022-09-09T15:06:17;8.98;;;1.83;;
40453;SDS011;26160;51.858;4.398;2022-09-09T15:08:45;9.32;;;2.50;;
40453;SDS011;26160;51.858;4.398;2022-09-09T15:11:12;7.18;;;2.60;;
40453;SDS011;26160;51.858;4.398;2022-09-09T15:13:40;6.93;;;2.35;;
40453;SDS011;26160;51.858;4.398;2022-09-09T15:16:09;6.28;;;2.10;;
40453;SDS011;26160;51.858;4.398;2022-09-09T15:18:37;8.00;;;2.78;;
40453;SDS011;26160;51.858;4.398;2022-09-09T15:21:12;9.02;;;2.90;;
40453;SDS011;26160;51.858;4.398;2022-09-09T15:23:40;6.55;;;2.47;;
40453;SDS011;26160;51.858;4.398;2022-09-09T15:26:07;9.15;;;3.42;;
40453;SDS011;26160;51.858;4.398;2022-09-09T15:28:34;8.77;;;3.22;;
40453;SDS011;26160;51.858;4.398;2022-09-09T15:31:06;10.32;;;3.38;;
40453;SDS011;26160;51.858;4.398;2022-09-09T15:33:35;10.73;;;3.35;;
40453;SDS011;26160;51.858;4.398;2022-09-09T15:38:42;5.22;;;2.63;;
40453;SDS011;26160;51.858;4.398;2022-09-09T15:41:09;8.82;;;3.20;;
40453;SDS011;26160;51.858;4.398;2022-09-09T15:43:37;7.22;;;2.67;;
40453;SDS011;26160;51.858;4.398;2022-09-09T15:48:57;5.75;;;2.25;;
40453;SDS011;26160;51.858;4.398;2022-09-09T15:51:32;7.63;;;2.55;;
40453;SDS011;26160;51.858;4.398;2022-09-09T15:53:59;8.20;;;2.80;;
40453;SDS011;26160;51.858;4.398;2022-09-09T15:56:26;7.20;;;2.55;;
40453;SDS011;26160;51.858;4.398;2022-09-09T15:58:54;8.85;;;2.42;;
40453;SDS011;26160;51.858;4.398;2022-09-09T16:01:21;6.72;;;2.50;;
40453;SDS011;26160;51.858;4.398;2022-09-09T16:03:47;4.47;;;2.60;;
40453;SDS011;26160;51.858;4.398;2022-09-09T16:06:17;11.75;;;3.95;;
40453;SDS011;26160;51.858;4.398;2022-09-09T16:08:47;7.97;;;2.40;;
40453;SDS011;26160;51.858;4.398;2022-09-09T16:11:18;6.40;;;2.92;;
40453;SDS011;26160;51.858;4.398;2022-09-09T16:13:48;9.23;;;3.10;;
40453;SDS011;26160;51.858;4.398;2022-09-09T16:16:16;9.32;;;3.17;;
40453;SDS011;26160;51.858;4.398;2022-09-09T16:18:47;5.78;;;3.38;;
40453;SDS011;26160;51.858;4.398;2022-09-09T16:21:25;6.25;;;3.28;;
40453;SDS011;26160;51.858;4.398;2022-09-09T16:24:03;9.93;;;4.13;;
40453;SDS011;26160;51.858;4.398;2022-09-09T16:26:31;9.30;;;3.90;;
40453;SDS011;26160;51.858;4.398;2022-09-09T16:29:07;8.02;;;3.60;;
40453;SDS011;26160;51.858;4.398;2022-09-09T16:31:34;9.77;;;3.85;;
40453;SDS011;26160;51.858;4.398;2022-09-09T16:34:06;9.07;;;3.33;;
40453;SDS011;26160;51.858;4.398;2022-09-09T16:36:34;7.68;;;2.90;;
40453;SDS011;26160;51.858;4.398;2022-09-09T16:39:08;7.72;;;2.92;;
40453;SDS011;26160;51.858;4.398;2022-09-09T16:41:36;9.35;;;3.72;;
40453;SDS011;26160;51.858;4.398;2022-09-09T16:44:05;8.13;;;3.63;;
40453;SDS011;26160;51.858;4.398;2022-09-09T16:46:33;7.03;;;3.08;;
40453;SDS011;26160;51.858;4.398;2022-09-09T16:49:05;6.47;;;3.00;;
40453;SDS011;26160;51.858;4.398;2022-09-09T16:51:36;5.57;;;2.42;;
40453;SDS011;26160;51.858;4.398;2022-09-09T16:54:05;5.60;;;3.10;;
40453;SDS011;26160;51.858;4.398;2022-09-09T16:56:33;6.78;;;2.92;;
40453;SDS011;26160;51.858;4.398;2022-09-09T16:59:04;4.03;;;2.20;;
40453;SDS011;26160;51.858;4.398;2022-09-09T17:01:33;3.28;;;1.92;;
40453;SDS011;26160;51.858;4.398;2022-09-09T17:04:10;6.85;;;2.25;;
40453;SDS011;26160;51.858;4.398;2022-09-09T17:06:39;5.90;;;2.22;;
40453;SDS011;26160;51.858;4.398;2022-09-09T17:09:10;4.07;;;2.25;;
40453;SDS011;26160;51.858;4.398;2022-09-09T17:11:37;4.50;;;2.38;;
40453;SDS011;26160;51.858;4.398;2022-09-09T17:14:05;7.22;;;2.53;;
40453;SDS011;26160;51.858;4.398;2022-09-09T17:16:34;6.65;;;2.50;;
40453;SDS011;26160;51.858;4.398;2022-09-09T17:19:01;4.22;;;2.42;;
40453;SDS011;26160;51.858;4.398;2022-09-09T17:21:29;6.78;;;2.78;;
40453;SDS011;26160;51.858;4.398;2022-09-09T17:23:57;5.85;;;3.00;;
40453;SDS011;26160;51.858;4.398;2022-09-09T17:26:24;4.07;;;2.97;;
40453;SDS011;26160;51.858;4.398;2022-09-09T17:28:53;5.95;;;2.60;;
40453;SDS011;26160;51.858;4.398;2022-09-09T17:31:21;5.57;;;2.25;;
40453;SDS011;26160;51.858;4.398;2022-09-09T17:33:48;4.35;;;2.00;;
40453;SDS011;26160;51.858;4.398;2022-09-09T17:36:39;5.00;;;2.13;;
40453;SDS011;26160;51.858;4.398;2022-09-09T17:39:04;5.43;;;2.10;;
40453;SDS011;26160;51.858;4.398;2022-09-09T17:41:36;3.83;;;1.80;;
40453;SDS011;26160;51.858;4.398;2022-09-09T17:44:04;3.90;;;1.75;;
40453;SDS011;26160;51.858;4.398;2022-09-09T17:46:35;4.97;;;1.98;;
40453;SDS011;26160;51.858;4.398;2022-09-09T17:49:03;2.92;;;1.83;;
40453;SDS011;26160;51.858;4.398;2022-09-09T17:51:32;3.97;;;1.95;;
40453;SDS011;26160;51.858;4.398;2022-09-09T17:54:00;4.82;;;2.17;;
40453;SDS011;26160;51.858;4.398;2022-09-09T17:56:33;8.30;;;2.42;;
40453;SDS011;26160;51.858;4.398;2022-09-09T17:59:01;8.75;;;2.70;;
40453;SDS011;26160;51.858;4.398;2022-09-09T18:01:30;4.82;;;2.20;;
40453;SDS011;26160;51.858;4.398;2022-09-09T18:03:59;9.52;;;2.95;;
40453;SDS011;26160;51.858;4.398;2022-09-09T18:06:27;11.35;;;2.80;;
40453;SDS011;26160;51.858;4.398;2022-09-09T18:08:57;10.00;;;3.00;;
40453;SDS011;26160;51.858;4.398;2022-09-09T18:11:26;6.88;;;2.80;;
40453;SDS011;26160;51.858;4.398;2022-09-09T18:13:55;9.57;;;3.17;;
40453;SDS011;26160;51.858;4.398;2022-09-09T18:16:25;10.93;;;3.33;;